Latest Weather Observations for Nambour

IDQ60801

Issued at 10:02 am EST Saturday 25 April 2015 (issued every 30 minutes, with the page automatically refreshed every 10 minutes)

About weather observations | Map of weather stations | Latest weather observations for QLD | Other Formats
Station Details ID: 040988 Name: NAMBOUR DAFF - HILLSIDE Lat: -26.64 Lon: 152.94 Height: 53.24 m
Data from the previous 72 hours. | See also: Recent months at Nambour
Date/Time
EST
Temp
°C
App
Temp
°C
Dew
Point
Rel
Hum
%
Delta-T
°C
Wind Press
QNH
hPa
Press
MSL
hPa
Rain
since 9 am
mm
Dir
 
Spd
km/h
Gust
km/h
Spd
kts
Gust
kts
25/10:00am 25.8 26.5 15.5 53 6.3 NE 6 7 3 4 1011.1 1010.9 0.0
25/09:30am 24.8 25.7 15.1 54 5.8 ENE 4 6 2 3 1011.2 1011.0 0.0
25/09:00am 22.8 23.6 14.9 61 4.7 ENE 4 6 2 3 1011.3 1011.1 0.0
25/08:30am 22.0 23.5 14.6 63 4.4 CALM 0 2 0 1 1011.3 1011.1 0.0
25/08:00am 19.8 21.1 14.0 69 3.4 CALM 0 0 0 0 1011.2 1011.0 0.0
25/07:30am 17.7 19.3 14.8 83 1.7 CALM 0 0 0 0 1011.1 1010.9 0.0
25/07:00am 15.5 16.5 13.3 87 1.2 CALM 0 0 0 0 1010.9 1010.7 0.0
25/06:30am 14.7 15.9 13.9 95 0.4 CALM 0 0 0 0 1010.6 1010.4 0.0
25/06:00am 14.3 15.3 13.3 94 0.6 CALM 0 0 0 0 1010.2 1010.0 0.0
25/05:30am 14.7 15.9 13.7 94 0.6 CALM 0 0 0 0 1010.0 1009.8 0.0
25/05:00am 14.6 15.7 13.5 93 0.6 CALM 0 0 0 0 1009.8 1009.6 0.0
25/04:30am 14.7 15.7 13.2 91 0.8 CALM 0 0 0 0 1009.7 1009.5 0.0
25/04:00am 15.0 16.2 13.7 92 0.7 CALM 0 0 0 0 1009.6 1009.4 0.0
25/03:30am 15.1 16.2 13.6 91 0.8 CALM 0 0 0 0 1009.7 1009.5 0.0
25/03:00am 15.9 17.5 14.9 94 0.6 CALM 0 6 0 3 1009.6 1009.4 0.0
25/02:30am 15.3 16.5 13.7 90 0.9 CALM 0 0 0 0 1009.9 1009.7 0.0
25/02:00am 15.8 17.3 14.7 93 0.6 CALM 0 0 0 0 1009.9 1009.7 0.0
25/01:30am 15.6 16.9 14.1 91 0.9 CALM 0 0 0 0 1010.1 1009.9 0.0
25/01:00am 15.9 17.3 14.4 91 0.9 CALM 0 4 0 2 1010.2 1010.0 0.0
25/12:30am 16.6 18.2 14.8 89 1.0 CALM 0 4 0 2 1010.5 1010.3 0.0
25/12:00am 17.8 18.7 14.1 79 2.1 W 2 4 1 2 1010.5 1010.3 0.0
 
Date/Time
EST
Temp
°C
App
Temp
°C
Dew
Point
Rel
Hum
%
Delta-T
°C
Wind Press
QNH
hPa
Press
MSL
hPa
Rain
since 9 am
mm
Dir
 
Spd
km/h
Gust
km/h
Spd
kts
Gust
kts
24/11:30pm 18.8 20.5 16.2 85 1.6 WNW 2 4 1 2 1010.7 1010.5 0.0
24/11:00pm 16.6 17.9 14.2 86 1.4 CALM 0 0 0 0 1010.7 1010.5 0.0
24/10:30pm 17.0 18.5 14.6 86 1.4 CALM 0 0 0 0 1010.6 1010.4 0.0
24/10:00pm 17.2 18.4 13.9 81 1.9 CALM 0 2 0 1 1010.7 1010.5 0.0
24/09:30pm 17.9 19.0 14.6 81 1.9 NW 2 6 1 3 1010.8 1010.6 0.0
24/09:00pm 17.0 18.4 14.5 85 1.4 CALM 0 0 0 0 1010.8 1010.6 0.0
24/08:30pm 17.2 18.7 14.7 85 1.4 CALM 0 0 0 0 1010.6 1010.4 0.0
24/08:00pm 17.6 19.1 14.7 83 1.7 CALM 0 0 0 0 1010.4 1010.2 0.0
24/07:30pm 18.0 19.4 15.4 85 1.5 WSW 2 2 1 1 1010.1 1009.9 0.0
24/07:00pm 18.6 20.1 14.7 78 2.3 CALM 0 0 0 0 1009.9 1009.7 0.0
24/06:30pm 19.2 20.7 14.7 75 2.6 CALM 0 2 0 1 1009.6 1009.4 0.0
24/06:00pm 20.7 22.4 15.3 71 3.2 CALM 0 0 0 0 1009.2 1009.0 0.0
24/05:30pm 21.7 23.4 15.1 66 3.9 CALM 0 4 0 2 1008.9 1008.7 0.0
24/05:00pm 23.3 23.5 14.6 58 5.2 ENE 7 13 4 7 1008.5 1008.3 0.0
24/04:30pm 24.2 23.9 14.3 54 5.9 ENE 9 11 5 6 1008.1 1008.0 0.0
24/04:00pm 24.8 25.1 14.9 54 5.9 E 7 11 4 6 1008.0 1007.9 0.0
24/03:30pm 24.8 25.1 14.6 53 6.1 ENE 6 9 3 5 1007.9 1007.8 0.0
24/03:00pm 25.5 26.2 13.4 47 7.1 WSW 2 6 1 3 1008.0 1007.9 0.0
24/02:30pm 26.3 26.9 13.1 44 7.7 WSW 2 6 1 3 1007.8 1007.7 0.0
24/02:00pm 26.3 26.4 11.6 40 8.4 SSE 2 4 1 2 1007.9 1007.8 0.0
24/01:30pm 27.1 26.5 12.3 39 8.6 SW 7 13 4 7 1008.1 1008.0 0.0
24/01:00pm 26.3 25.9 11.2 38 8.6 S 4 7 2 4 1008.5 1008.3 0.0
24/12:30pm 26.8 26.3 12.1 40 8.5 SW 6 15 3 8 1009.1 1008.9 0.0
24/12:00pm 26.2 25.9 11.5 40 8.4 SSW 4 7 2 4 1009.4 1009.2 0.0
24/11:30am 25.9 25.1 10.9 39 8.5 SW 6 13 3 7 1010.0 1009.8 0.0
24/11:00am 25.5 24.8 12.0 43 7.7 WSW 7 11 4 6 1010.5 1010.3 0.0
24/10:30am 24.9 24.4 12.5 46 7.1 W 7 11 4 6 1011.1 1010.9 0.0
24/10:00am 24.3 25.1 14.7 55 5.7 SW 4 7 2 4 1011.4 1011.2 0.0
24/09:30am 23.8 24.8 15.3 59 5.1 ENE 4 6 2 3 1011.0 1010.8 0.0
24/09:00am 22.1 23.9 15.5 66 4.0 CALM 0 2 0 1 1011.3 1011.1 0.0
24/08:30am 21.0 22.7 15.1 69 3.5 CALM 0 4 0 2 1011.2 1011.0 0.0
24/08:00am 19.2 20.4 14.9 76 2.5 ENE 2 4 1 2 1011.0 1010.8 0.0
24/07:30am 16.3 17.9 14.8 91 0.9 CALM 0 2 0 1 1011.1 1010.9 0.0
24/07:00am 14.5 15.6 13.5 94 0.6 CALM 0 0 0 0 1011.0 1010.8 0.0
24/06:30am 14.4 15.5 13.6 95 0.4 CALM 0 2 0 1 1010.6 1010.4 0.0
24/06:00am 14.0 15.0 13.2 95 0.4 CALM 0 0 0 0 1010.4 1010.2 0.0
24/05:30am 13.9 14.9 13.1 95 0.4 CALM 0 4 0 2 1010.1 1009.9 0.0
24/05:00am 14.0 14.9 12.9 93 0.6 CALM 0 0 0 0 1010.1 1009.9 0.0
24/04:30am 14.8 16.1 14.0 95 0.5 CALM 0 0 0 0 1010.0 1009.8 0.0
24/04:00am 13.4 14.2 12.5 94 0.5 CALM 0 0 0 0 1010.1 1009.9 0.0
24/03:30am 13.8 14.7 12.9 94 0.5 CALM 0 0 0 0 1010.3 1010.1 0.0
24/03:00am 13.9 14.8 13.0 94 0.5 CALM 0 0 0 0 1010.3 1010.1 0.0
24/02:30am 14.0 14.8 12.7 92 0.7 CALM 0 0 0 0 1010.5 1010.3 0.0
24/02:00am 13.9 14.8 13.0 94 0.5 CALM 0 0 0 0 1010.5 1010.3 0.0
24/01:30am 14.1 15.1 13.1 94 0.6 CALM 0 0 0 0 1010.8 1010.6 0.0
24/01:00am 14.2 15.2 13.1 93 0.6 CALM 0 0 0 0 1011.1 1010.9 0.0
24/12:30am 14.3 15.2 13.0 92 0.7 CALM 0 0 0 0 1011.3 1011.1 0.0
24/12:00am 15.3 16.7 14.3 94 0.6 CALM 0 0 0 0 1011.2 1011.0 0.0
 
Date/Time
EST
Temp
°C
App
Temp
°C
Dew
Point
Rel
Hum
%
Delta-T
°C
Wind Press
QNH
hPa
Press
MSL
hPa
Rain
since 9 am
mm
Dir
 
Spd
km/h
Gust
km/h
Spd
kts
Gust
kts
23/11:30pm 15.1 16.3 13.8 92 0.7 CALM 0 0 0 0 1011.3 1011.1 0.0
23/11:00pm 14.5 15.5 13.2 92 0.7 CALM 0 0 0 0 1011.6 1011.4 0.0
23/10:30pm 14.8 15.8 13.3 91 0.8 CALM 0 0 0 0 1011.6 1011.4 0.0
23/10:00pm 14.7 15.8 13.4 92 0.7 CALM 0 0 0 0 1011.7 1011.5 0.0
23/09:30pm 14.8 15.8 13.2 90 0.9 CALM 0 0 0 0 1011.8 1011.6 0.0
23/09:00pm 15.1 16.1 13.1 88 1.1 CALM 0 0 0 0 1011.8 1011.6 0.0
23/08:30pm 15.0 15.8 12.7 86 1.3 CALM 0 0 0 0 1011.7 1011.5 0.0
23/08:00pm 15.8 16.7 12.9 83 1.6 CALM 0 0 0 0 1011.5 1011.3 0.0
23/07:30pm 15.8 16.7 12.9 83 1.6 CALM 0 0 0 0 1011.4 1011.2 0.0
23/07:00pm 16.4 17.4 13.1 81 1.8 CALM 0 0 0 0 1011.3 1011.1 0.0
23/06:30pm 17.0 18.0 13.3 79 2.1 CALM 0 0 0 0 1010.8 1010.6 0.0
23/06:00pm 17.9 18.8 13.0 73 2.8 CALM 0 0 0 0 1010.6 1010.4 0.0
23/05:30pm 19.8 20.7 13.0 65 3.9 CALM 0 0 0 0 1010.2 1010.0 0.0
23/05:00pm 21.3 20.8 12.2 56 5.1 ENE 6 7 3 4 1009.9 1009.7 0.0
23/04:30pm 22.3 21.8 12.5 53 5.6 NE 7 9 4 5 1009.7 1009.5 0.0
23/04:00pm 22.9 22.5 13.1 54 5.7 ENE 7 9 4 5 1009.5 1009.3 0.0
23/03:30pm 23.2 22.3 12.5 51 6.1 ENE 9 15 5 8 1009.4 1009.2 0.0
23/03:00pm 24.6 24.7 10.1 40 8.0 CALM 0 6 0 3 1009.5 1009.3 0.0
23/02:30pm 24.5 23.6 10.8 42 7.7 ESE 6 9 3 5 1009.4 1009.2 0.0
23/02:00pm 24.6 23.7 10.5 41 7.9 ESE 6 13 3 7 1009.7 1009.5 0.0
23/01:30pm 24.4 24.0 11.0 43 7.5 E 4 9 2 5 1010.1 1009.9 0.0
23/01:00pm 24.2 23.3 10.5 42 7.6 E 6 9 3 5 1010.5 1010.3 0.0
23/12:30pm 24.2 23.1 10.8 43 7.5 ESE 7 17 4 9 1011.0 1010.8 0.0
23/12:00pm 23.8 23.0 9.8 41 7.7 SE 4 9 2 5 1011.5 1011.3 0.0
23/11:30am 23.7 22.7 11.1 45 7.0 SE 7 17 4 9 1012.0 1011.8 0.0
23/11:00am 22.7 21.9 9.5 43 7.1 ESE 4 7 2 4 1012.6 1012.4 0.0
23/10:30am 22.3 21.4 10.5 47 6.5 E 6 13 3 7 1012.9 1012.7 0.0
23/10:00am 22.3 21.8 10.8 48 6.4 SSE 4 9 2 5 1013.2 1013.0 0.0
23/09:30am 21.9 21.0 10.7 49 6.2 ESE 6 11 3 6 1013.3 1013.1 0.0
23/09:00am 21.0 20.8 10.5 51 5.7 SW 2 6 1 3 1013.4 1013.2 0.0
23/08:30am 20.0 19.4 10.4 54 5.2 WSW 4 7 2 4 1013.3 1013.1 0.0
23/08:00am 17.9 18.1 11.9 68 3.3 E 2 6 1 3 1013.2 1013.0 0.0
23/07:30am 18.0 16.7 9.9 59 4.3 WSW 7 11 4 6 1013.1 1012.9 0.0
23/07:00am 16.8 15.4 9.7 63 3.7 SW 7 13 4 7 1012.9 1012.7 0.0
23/06:30am 12.9 12.2 9.9 82 1.5 SW 4 9 2 5 1012.8 1012.6 0.0
23/06:00am 13.3 12.4 9.2 76 2.1 SW 4 9 2 5 1012.6 1012.4 0.0
23/05:30am 10.7 10.1 9.1 90 0.8 SW 2 9 1 5 1012.2 1012.0 0.0
23/05:00am 10.6 10.4 9.2 91 0.7 CALM 0 4 0 2 1011.9 1011.7 0.0
23/04:30am 11.1 11.1 9.9 92 0.6 CALM 0 0 0 0 1011.8 1011.6 0.0
23/04:00am 11.2 11.3 10.0 92 0.6 CALM 0 0 0 0 1011.6 1011.4 0.0
23/03:30am 11.1 11.1 9.7 91 0.7 CALM 0 0 0 0 1011.5 1011.3 0.0
23/03:00am 11.2 10.7 9.5 89 0.9 SW 2 9 1 5 1011.5 1011.3 0.0
23/02:30am 12.0 11.4 9.0 82 1.5 SW 2 9 1 5 1011.7 1011.5 0.0
23/02:00am 13.7 13.3 9.9 78 2.0 S 2 6 1 3 1012.1 1011.9 0.0
23/01:30am 12.1 12.0 9.3 83 1.4 CALM 0 0 0 0 1012.5 1012.3 0.0
23/01:00am 12.0 11.8 9.2 83 1.4 CALM 0 2 0 1 1012.8 1012.6 0.0
23/12:30am 12.2 12.0 9.2 82 1.5 CALM 0 0 0 0 1013.0 1012.8 0.0
23/12:00am 12.7 12.5 9.2 79 1.8 CALM 0 4 0 2 1013.0 1012.8 0.0
 
Date/Time
EST
Temp
°C
App
Temp
°C
Dew
Point
Rel
Hum
%
Delta-T
°C
Wind Press
QNH
hPa
Press
MSL
hPa
Rain
since 9 am
mm
Dir
 
Spd
km/h
Gust
km/h
Spd
kts
Gust
kts
22/11:30pm 12.6 12.5 9.4 81 1.6 CALM 0 0 0 0 1013.5 1013.3 0.0
22/11:00pm 13.4 13.3 9.6 78 1.9 CALM 0 0 0 0 1013.7 1013.5 0.0
22/10:30pm 14.9 14.4 9.5 70 2.8 SW 2 7 1 4 1013.9 1013.7 0.0
22/10:00pm 14.8 14.8 11.0 78 2.0 SW 2 7 1 4 1014.3 1014.1 0.0
22/09:30pm 13.1 13.6 11.5 90 0.9 CALM 0 0 0 0 1014.3 1014.1 0.0
22/09:00pm 13.5 14.0 11.7 89 1.0 CALM 0 0 0 0 1014.3 1014.1 0.0
22/08:30pm 14.2 14.9 12.1 87 1.1 CALM 0 0 0 0 1014.2 1014.0 0.0
22/08:00pm 14.0 14.6 11.9 87 1.1 CALM 0 0 0 0 1014.0 1013.8 0.0
22/07:30pm 15.0 15.9 12.9 87 1.2 CALM 0 0 0 0 1013.7 1013.5 0.0
22/07:00pm 15.3 16.0 12.1 81 1.7 CALM 0 0 0 0 1013.4 1013.2 0.0
22/06:30pm 15.9 16.7 12.6 81 1.8 CALM 0 0 0 0 1013.2 1013.0 0.0
22/06:00pm 16.7 17.5 12.5 76 2.3 CALM 0 0 0 0 1012.9 1012.7 0.0
22/05:30pm 18.4 18.9 12.8 70 3.1 W 2 4 1 2 1012.5 1012.3 0.0
22/05:00pm 20.3 20.5 12.0 59 4.6 ENE 2 6 1 3 1012.2 1012.0 0.0
22/04:30pm 21.6 21.3 11.3 52 5.7 ENE 4 6 2 3 1011.9 1011.7 0.0
22/04:00pm 21.9 21.1 11.0 50 6.0 ESE 6 9 3 5 1011.6 1011.4 0.0
22/03:30pm 22.1 21.2 11.2 50 6.1 ENE 7 11 4 6 1011.6 1011.4 0.0
22/03:00pm 22.3 21.0 11.4 50 6.1 ENE 9 13 5 7 1011.6 1011.4 0.0
22/02:30pm 23.4 22.7 10.1 43 7.3 ESE 4 7 2 4 1011.6 1011.4 0.0
22/02:00pm 23.2 21.6 8.9 40 7.7 WSW 7 13 4 7 1011.9 1011.7 0.0
22/01:30pm 23.3 22.9 9.7 42 7.4 SSW 2 7 1 4 1012.1 1011.9 0.0
22/01:00pm 22.9 22.1 9.7 43 7.2 WSW 4 9 2 5 1012.3 1012.1 0.0
22/12:30pm 22.5 21.9 10.3 46 6.7 WSW 4 7 2 4 1012.8 1012.6 0.0
22/12:00pm 22.2 21.7 10.7 48 6.3 NE 4 7 2 4 1013.3 1013.1 0.0
22/11:30am 21.8 21.0 10.9 50 6.0 WNW 6 15 3 8 1013.8 1013.6 0.0
22/11:00am 20.9 19.9 10.4 51 5.7 SSW 6 13 3 7 1014.3 1014.1 0.0
22/10:30am 20.2 19.3 9.2 49 5.8 SSW 4 9 2 5 1014.6 1014.4 0.0

Other Formats:

Comma delimited format used in spreadsheet applications
http://www.bom.gov.au/fwo/IDQ60801/IDQ60801.95572.axf

JavaScript Object Notation format (JSON) in row-major order
http://www.bom.gov.au/fwo/IDQ60801/IDQ60801.95572.json